Time;durP1;ratioP1;P1;durP2;ratioP2;P2;SDS_P1;SDS_P2;PMS_P1;PMS_P2;Temp;Humidity;BMP_temperature;BMP_pressure;BME280_temperature;BME280_humidity;BME280_pressure;Samples;Min_cycle;Max_cycle;Signal;HPM_P1;HPM_P2
2023/03/31 00:02:06;;;;;;;0.20;0.20;;;9.80;99.90;;;;;;5070038;28;20440;-86
2023/03/31 00:04:32;;;;;;;0.20;0.20;;;9.80;99.90;;;;;;5071890;28;20443;-87
2023/03/31 00:06:57;;;;;;;0.20;0.20;;;9.80;99.90;;;;;;5072530;28;20922;-86
2023/03/31 00:09:23;;;;;;;0.20;0.20;;;9.80;99.90;;;;;;5072858;28;20178;-86
2023/03/31 00:11:50;;;;;;;0.20;0.20;;;9.80;99.90;;;;;;5055668;28;20278;-87
2023/03/31 00:14:18;;;;;;;0.10;0.10;;;9.80;99.90;;;;;;5052209;28;20825;-87
2023/03/31 00:16:44;;;;;;;0.20;0.20;;;9.80;99.90;;;;;;5070479;28;20436;-86
2023/03/31 00:19:16;;;;;;;0.20;0.20;;;9.80;99.90;;;;;;5072793;28;20483;-86
2023/03/31 00:21:47;;;;;;;0.20;0.20;;;9.90;99.90;;;;;;5053069;28;20451;-85
2023/03/31 00:24:15;;;;;;;0.20;0.20;;;9.80;99.90;;;;;;5070943;28;21026;-88
2023/03/31 00:26:41;;;;;;;0.20;0.20;;;9.80;99.90;;;;;;5070936;28;20444;-86
2023/03/31 00:29:08;;;;;;;0.20;0.20;;;9.80;99.90;;;;;;5072697;28;20451;-86
2023/03/31 00:31:34;;;;;;;0.20;0.20;;;9.70;99.90;;;;;;5067887;28;20492;-85
2023/03/31 00:34:01;;;;;;;0.20;0.20;;;9.70;99.90;;;;;;5055706;28;20445;-85
2023/03/31 00:36:29;;;;;;;0.20;0.20;;;9.70;99.90;;;;;;5054165;28;20590;-86
2023/03/31 00:38:58;;;;;;;0.20;0.20;;;9.60;99.90;;;;;;5073660;22;20481;-85
2023/03/31 00:41:28;;;;;;;0.20;0.20;;;9.60;99.90;;;;;;5035253;28;20566;-87
2023/03/31 00:44:26;;;;;;;0.20;0.20;;;9.60;99.90;;;;;;5033558;28;20449;-86
2023/03/31 00:47:14;;;;;;;0.20;0.20;;;9.60;99.90;;;;;;5052080;28;20488;-87
2023/03/31 00:49:45;;;;;;;0.20;0.20;;;9.60;99.90;;;;;;5051686;28;20533;-86
2023/03/31 00:52:21;;;;;;;0.20;0.20;;;9.60;99.90;;;;;;5029184;28;20446;-86
2023/03/31 00:54:49;;;;;;;0.20;0.20;;;9.60;99.90;;;;;;5050165;28;20531;-85
2023/03/31 00:57:15;;;;;;;0.20;0.20;;;9.50;99.90;;;;;;5045548;22;21167;-86
2023/03/31 00:59:50;;;;;;;0.20;0.20;;;9.60;99.90;;;;;;5030510;28;20486;-87
2023/03/31 01:02:19;;;;;;;0.10;0.10;;;9.60;99.90;;;;;;5013745;28;20191;-86
2023/03/31 01:04:56;;;;;;;0.17;0.17;;;9.60;99.90;;;;;;5038034;23;20600;-88
2023/03/31 01:07:29;;;;;;;0.20;0.20;;;9.60;99.90;;;;;;5036096;28;20469;-86
2023/03/31 01:09:58;;;;;;;0.20;0.20;;;9.60;99.90;;;;;;5054003;28;21220;-87
2023/03/31 01:12:25;;;;;;;0.20;0.20;;;9.60;99.90;;;;;;5050221;28;20453;-85
2023/03/31 01:14:52;;;;;;;0.20;0.20;;;9.60;99.90;;;;;;5070630;28;20451;-87
2023/03/31 01:17:20;;;;;;;0.20;0.20;;;9.60;99.90;;;;;;5051396;28;20439;-87
2023/03/31 01:20:17;;;;;;;0.20;0.20;;;9.70;99.90;;;;;;5054060;28;20476;-86
2023/03/31 01:23:04;;;;;;;0.20;0.20;;;9.70;99.90;;;;;;5043350;28;20528;-86
2023/03/31 01:26:13;;;;;;;0.20;0.20;;;9.70;99.90;;;;;;5062614;28;20447;-87
2023/03/31 01:28:58;;;;;;;0.20;0.20;;;9.70;99.90;;;;;;5049919;28;20778;-83
2023/03/31 01:32:02;;;;;;;0.20;0.20;;;9.70;99.90;;;;;;5067143;28;20443;-87
2023/03/31 01:34:52;;;;;;;0.20;0.20;;;9.70;99.90;;;;;;5053435;28;20456;-87
2023/03/31 01:37:42;;;;;;;0.20;0.20;;;9.70;99.90;;;;;;5054752;28;20983;-88
2023/03/31 01:40:22;;;;;;;0.20;0.20;;;9.70;99.90;;;;;;5071594;28;20484;-88
2023/03/31 01:43:00;;;;;;;0.20;0.20;;;9.70;99.90;;;;;;5046698;28;20445;-86
2023/03/31 01:45:55;;;;;;;0.20;0.20;;;9.60;99.90;;;;;;5063859;28;20483;-85
2023/03/31 01:48:32;;;;;;;0.20;0.20;;;9.70;99.90;;;;;;5064173;28;20438;-87
2023/03/31 01:51:16;;;;;;;0.20;0.20;;;9.70;99.90;;;;;;5072723;28;20454;-85
2023/03/31 01:53:59;;;;;;;0.20;0.20;;;9.70;99.90;;;;;;5051545;28;20449;-87
2023/03/31 01:56:38;;;;;;;0.20;0.20;;;9.70;99.90;;;;;;5052367;28;20538;-88
2023/03/31 01:59:12;;;;;;;0.20;0.20;;;9.70;99.90;;;;;;5050496;28;20464;-88
2023/03/31 02:01:58;;;;;;;0.20;0.20;;;9.70;99.90;;;;;;5054168;28;20449;-86
2023/03/31 02:04:55;;;;;;;0.20;0.20;;;9.70;99.90;;;;;;5046915;28;20475;-85
2023/03/31 02:07:33;;;;;;;0.20;0.20;;;9.70;99.90;;;;;;5070320;28;20539;-86
2023/03/31 02:10:04;;;;;;;0.20;0.20;;;9.70;99.90;;;;;;5069447;28;20509;-87
2023/03/31 02:12:31;;;;;;;0.20;0.20;;;9.70;99.90;;;;;;5054768;28;20439;-89
2023/03/31 02:14:59;;;;;;;0.20;0.20;;;9.70;99.90;;;;;;5062889;22;20496;-86
2023/03/31 02:17:31;;;;;;;0.20;0.20;;;9.70;99.90;;;;;;5068906;28;20436;-85
2023/03/31 02:20:04;;;;;;;0.20;0.20;;;9.70;99.90;;;;;;5051618;28;20480;-85
2023/03/31 02:22:35;;;;;;;0.20;0.20;;;9.70;99.90;;;;;;5050557;28;20957;-85
2023/03/31 02:25:12;;;;;;;0.20;0.20;;;9.70;99.90;;;;;;5072895;28;20448;-88
2023/03/31 02:27:41;;;;;;;0.20;0.20;;;9.70;99.90;;;;;;5054761;28;20452;-86
2023/03/31 02:30:09;;;;;;;0.20;0.20;;;9.70;99.90;;;;;;5069321;28;20451;-86
2023/03/31 02:32:38;;;;;;;0.20;0.20;;;9.70;99.90;;;;;;5072746;28;20447;-87
2023/03/31 02:35:14;;;;;;;0.20;0.20;;;9.70;99.90;;;;;;5063535;28;20444;-88
2023/03/31 02:37:41;;;;;;;0.20;0.20;;;9.70;99.90;;;;;;5072453;28;20459;-87
2023/03/31 02:40:15;;;;;;;0.20;0.20;;;9.70;99.90;;;;;;5052808;28;20491;-85
2023/03/31 02:42:42;;;;;;;0.20;0.20;;;9.70;99.90;;;;;;5053472;28;20812;-87
2023/03/31 02:45:38;;;;;;;0.20;0.20;;;9.70;99.90;;;;;;5049198;28;20994;-87
2023/03/31 02:48:07;;;;;;;0.20;0.20;;;9.70;99.90;;;;;;5063453;28;20440;-87
2023/03/31 02:51:00;;;;;;;0.20;0.20;;;9.70;99.90;;;;;;5045197;28;20441;-87
2023/03/31 02:53:52;;;;;;;0.20;0.20;;;9.70;99.90;;;;;;5044365;28;20783;-88
2023/03/31 02:56:44;;;;;;;0.20;0.20;;;9.70;99.90;;;;;;5056421;28;20547;-88
2023/03/31 02:59:21;;;;;;;0.20;0.20;;;9.70;99.90;;;;;;5051770;28;20479;-88
2023/03/31 03:02:13;;;;;;;0.10;0.10;;;9.60;99.90;;;;;;5048760;28;20447;-86
2023/03/31 03:05:04;;;;;;;0.20;0.20;;;9.60;99.90;;;;;;5065557;28;20581;-87
2023/03/31 03:07:41;;;;;;;0.20;0.20;;;9.60;99.90;;;;;;5048997;28;20443;-87
2023/03/31 03:10:26;;;;;;;0.20;0.20;;;9.60;99.90;;;;;;5062845;28;20466;-85
2023/03/31 03:13:25;;;;;;;0.20;0.20;;;9.60;99.90;;;;;;5072927;28;20456;-88
2023/03/31 03:16:17;;;;;;;0.20;0.20;;;9.60;99.90;;;;;;5052982;28;20586;-87
2023/03/31 03:18:57;;;;;;;0.20;0.20;;;9.60;99.90;;;;;;5042990;28;20484;-88
2023/03/31 03:21:22;;;;;;;0.20;0.20;;;9.60;99.90;;;;;;5068511;28;20450;-88
2023/03/31 03:23:51;;;;;;;0.20;0.20;;;9.60;99.90;;;;;;5071272;28;20944;-87
2023/03/31 03:26:22;;;;;;;0.20;0.20;;;9.60;99.90;;;;;;5048163;28;20646;-87
2023/03/31 03:28:48;;;;;;;0.20;0.20;;;9.60;99.90;;;;;;5060388;28;20441;-87
2023/03/31 03:31:14;;;;;;;0.20;0.20;;;9.60;99.90;;;;;;5051219;28;20440;-88
2023/03/31 03:33:40;;;;;;;0.20;0.20;;;9.60;99.90;;;;;;5068494;28;20467;-87
2023/03/31 03:36:11;;;;;;;0.20;0.20;;;9.60;99.90;;;;;;5051438;22;20927;-87
2023/03/31 03:38:37;;;;;;;0.20;0.20;;;9.60;99.90;;;;;;5039092;28;20491;-87
2023/03/31 03:41:03;;;;;;;0.20;0.20;;;9.50;99.90;;;;;;5039326;28;20457;-88
2023/03/31 03:43:28;;;;;;;0.20;0.20;;;9.60;99.90;;;;;;5053432;28;20229;-87
2023/03/31 03:45:54;;;;;;;0.20;0.20;;;9.50;99.90;;;;;;5048452;22;20494;-87
2023/03/31 03:48:20;;;;;;;0.20;0.20;;;9.50;99.90;;;;;;5061539;28;20206;-88
2023/03/31 03:50:46;;;;;;;0.20;0.20;;;9.50;99.90;;;;;;5072987;28;20239;-87
2023/03/31 03:53:12;;;;;;;0.20;0.20;;;9.50;99.90;;;;;;5076287;28;20279;-86
2023/03/31 03:55:38;;;;;;;0.20;0.20;;;9.50;99.90;;;;;;5053040;28;20441;-88
2023/03/31 03:58:03;;;;;;;0.20;0.20;;;9.50;99.90;;;;;;5075966;28;20575;-85
2023/03/31 04:00:29;;;;;;;0.20;0.20;;;9.50;99.90;;;;;;5052801;28;20673;-88
2023/03/31 04:02:55;;;;;;;0.20;0.20;;;9.50;99.90;;;;;;5057078;28;20198;-87
2023/03/31 04:05:20;;;;;;;0.20;0.20;;;9.50;99.90;;;;;;5129381;22;20507;-88
2023/03/31 04:07:46;;;;;;;0.20;0.20;;;9.50;99.90;;;;;;5052619;28;20251;-87
2023/03/31 04:10:12;;;;;;;0.20;0.20;;;9.50;99.90;;;;;;5074484;28;20289;-88
2023/03/31 04:12:37;;;;;;;0.10;0.10;;;9.50;99.90;;;;;;5049047;28;20192;-87
2023/03/31 04:15:03;;;;;;;0.20;0.20;;;9.50;99.90;;;;;;5072437;28;20189;-86
2023/03/31 04:17:33;;;;;;;0.20;0.20;;;9.50;99.90;;;;;;5057969;28;20188;-85
2023/03/31 04:20:04;;;;;;;0.20;0.20;;;9.50;99.90;;;;;;5054148;28;20490;-87
2023/03/31 04:22:34;;;;;;;0.20;0.20;;;9.50;99.90;;;;;;5072131;28;20436;-86
2023/03/31 04:25:09;;;;;;;0.20;0.20;;;9.50;99.90;;;;;;5071434;28;20448;-88
2023/03/31 04:27:35;;;;;;;0.20;0.20;;;9.50;99.90;;;;;;5052301;28;20992;-88
2023/03/31 04:30:00;;;;;;;0.20;0.20;;;9.50;99.90;;;;;;5072223;28;20441;-87
2023/03/31 04:32:27;;;;;;;0.20;0.20;;;9.50;99.90;;;;;;5071283;28;20278;-87
2023/03/31 04:35:01;;;;;;;0.20;0.20;;;9.50;99.90;;;;;;5051754;28;20285;-87
2023/03/31 04:37:34;;;;;;;0.20;0.20;;;9.50;99.90;;;;;;5053966;28;20456;-87
2023/03/31 04:40:08;;;;;;;0.20;0.20;;;9.50;99.90;;;;;;5071115;28;20544;-87
2023/03/31 04:42:33;;;;;;;0.20;0.20;;;9.50;99.90;;;;;;5074338;28;21000;-87
2023/03/31 04:44:59;;;;;;;0.20;0.20;;;9.50;99.90;;;;;;5074432;28;20523;-88
2023/03/31 04:47:30;;;;;;;0.20;0.20;;;9.50;99.90;;;;;;5059141;28;20178;-87
2023/03/31 04:49:56;;;;;;;0.13;0.13;;;9.50;99.90;;;;;;5069239;28;20177;-86
2023/03/31 04:52:21;;;;;;;0.20;0.20;;;9.50;99.90;;;;;;5071067;28;20420;-87
2023/03/31 04:54:47;;;;;;;0.20;0.20;;;9.50;99.90;;;;;;5054978;28;20184;-86
2023/03/31 04:57:13;;;;;;;0.20;0.20;;;9.50;99.90;;;;;;5077816;22;20328;-87
2023/03/31 04:59:56;;;;;;;0.20;0.20;;;9.50;99.90;;;;;;5052681;28;20220;-87
2023/03/31 05:02:24;;;;;;;0.20;0.20;;;9.50;99.90;;;;;;5057043;28;20170;-87
2023/03/31 05:07:18;;;;;;;0.20;0.20;;;9.40;99.90;;;;;;5073016;22;20487;-87
2023/03/31 05:09:44;;;;;;;0.20;0.20;;;9.50;99.90;;;;;;5072995;28;20436;-87
2023/03/31 05:14:50;;;;;;;0.20;0.20;;;9.40;99.90;;;;;;5098231;22;20222;-87
2023/03/31 05:17:16;;;;;;;0.20;0.20;;;9.40;99.90;;;;;;5031828;22;20505;-86
2023/03/31 05:19:46;;;;;;;0.20;0.20;;;9.40;99.90;;;;;;5020628;28;20205;-88
2023/03/31 05:22:22;;;;;;;0.20;0.20;;;9.40;99.90;;;;;;5014837;28;20473;-90
2023/03/31 05:24:47;;;;;;;0.20;0.20;;;9.50;99.90;;;;;;5029719;23;20549;-90
2023/03/31 05:27:13;;;;;;;0.20;0.20;;;9.50;99.90;;;;;;5025800;28;20578;-88
2023/03/31 05:29:38;;;;;;;0.20;0.20;;;9.50;99.90;;;;;;5034083;28;20548;-88
2023/03/31 05:32:04;;;;;;;0.20;0.20;;;9.50;99.90;;;;;;5035866;28;20184;-90
2023/03/31 05:34:30;;;;;;;0.10;0.10;;;9.50;99.90;;;;;;5056619;23;20699;-90
2023/03/31 05:37:10;;;;;;;0.20;0.20;;;9.50;99.90;;;;;;5050216;28;20232;-90
2023/03/31 05:39:36;;;;;;;0.20;0.20;;;9.50;99.90;;;;;;5052327;28;20289;-90
2023/03/31 05:42:02;;;;;;;0.20;0.20;;;9.50;99.90;;;;;;5066393;22;20433;-88
2023/03/31 05:44:27;;;;;;;0.20;0.20;;;9.50;99.90;;;;;;5062097;23;20308;-89
2023/03/31 05:46:53;;;;;;;0.20;0.20;;;9.50;99.90;;;;;;5071409;27;20955;-90
2023/03/31 05:49:25;;;;;;;0.20;0.20;;;9.50;99.90;;;;;;5072127;28;20186;-88
2023/03/31 05:51:52;;;;;;;0.20;0.20;;;9.60;99.90;;;;;;5058118;23;20248;-87
2023/03/31 05:54:18;;;;;;;0.20;0.20;;;9.60;99.90;;;;;;5091924;28;20523;-89
2023/03/31 05:56:43;;;;;;;0.20;0.20;;;9.60;99.90;;;;;;5092610;27;20871;-91
2023/03/31 05:59:09;;;;;;;0.20;0.20;;;9.60;99.90;;;;;;5074939;28;20345;-94
2023/03/31 06:01:35;;;;;;;0.20;0.20;;;9.60;99.90;;;;;;5070553;22;20237;-87
2023/03/31 06:04:02;;;;;;;0.20;0.20;;;9.60;99.90;;;;;;5030935;28;20245;-90
2023/03/31 06:06:27;;;;;;;0.20;0.20;;;9.60;99.90;;;;;;5051586;28;20433;-88
2023/03/31 06:08:53;;;;;;;0.20;0.20;;;9.60;99.90;;;;;;5047674;28;20464;-90
2023/03/31 06:11:21;;;;;;;0.20;0.20;;;9.60;99.90;;;;;;5050248;28;20240;-90
2023/03/31 06:13:47;;;;;;;0.20;0.20;;;9.60;99.90;;;;;;5050635;28;20682;-88
2023/03/31 06:16:16;;;;;;;0.20;0.20;;;9.60;99.90;;;;;;5055948;22;20501;-88
2023/03/31 06:18:42;;;;;;;0.20;0.20;;;9.60;99.90;;;;;;5041908;22;20851;-90
2023/03/31 06:21:12;;;;;;;0.20;0.20;;;9.60;99.90;;;;;;5032238;28;20503;-88
2023/03/31 06:23:37;;;;;;;0.20;0.20;;;9.60;99.90;;;;;;5032759;28;20426;-89
2023/03/31 06:26:07;;;;;;;0.20;0.20;;;9.70;99.90;;;;;;5029743;28;21144;-89
2023/03/31 06:28:34;;;;;;;0.20;0.20;;;9.70;99.90;;;;;;5026404;28;20552;-89
2023/03/31 06:31:05;;;;;;;0.20;0.20;;;9.70;99.90;;;;;;5032802;28;20450;-89
2023/03/31 06:33:32;;;;;;;0.20;0.20;;;9.80;99.90;;;;;;5025363;28;20552;-90
2023/03/31 06:36:03;;;;;;;0.20;0.20;;;9.80;99.90;;;;;;5012152;28;20446;-91
2023/03/31 06:38:29;;;;;;;0.20;0.20;;;9.80;99.90;;;;;;5017145;28;20434;-93
2023/03/31 06:40:55;;;;;;;0.20;0.20;;;9.80;99.90;;;;;;5026574;28;20949;-91
2023/03/31 06:43:20;;;;;;;0.20;0.20;;;9.80;99.90;;;;;;5028086;28;20549;-90
2023/03/31 06:46:03;;;;;;;0.20;0.20;;;9.80;99.90;;;;;;5065469;23;20245;-90
2023/03/31 06:48:28;;;;;;;0.20;0.20;;;9.80;99.90;;;;;;5054266;28;20255;-90
2023/03/31 06:50:57;;;;;;;0.20;0.20;;;9.90;99.90;;;;;;5053828;28;20838;-88
2023/03/31 06:53:23;;;;;;;0.20;0.20;;;9.80;99.90;;;;;;5060503;23;20268;-90
2023/03/31 06:55:52;;;;;;;0.20;0.20;;;9.80;99.90;;;;;;5066459;28;20460;-90
2023/03/31 06:58:17;;;;;;;0.20;0.20;;;9.80;99.90;;;;;;5066192;28;20185;-92
2023/03/31 07:03:12;;;;;;;0.20;0.20;;;9.80;99.90;;;;;;5071587;22;20732;-89
2023/03/31 07:05:38;;;;;;;0.20;0.20;;;9.80;99.90;;;;;;5080192;28;20449;-91
2023/03/31 07:08:03;;;;;;;0.20;0.20;;;9.80;99.90;;;;;;5070755;28;20857;-90
2023/03/31 07:10:31;;;;;;;0.20;0.20;;;9.90;99.90;;;;;;5081580;22;20241;-91
2023/03/31 07:12:57;;;;;;;0.20;0.20;;;9.90;99.90;;;;;;5072811;28;20188;-90
2023/03/31 07:15:24;;;;;;;0.20;0.20;;;9.90;99.90;;;;;;5068651;28;20889;-91
2023/03/31 07:17:52;;;;;;;0.20;0.20;;;9.90;99.90;;;;;;5089931;28;20522;-88
2023/03/31 07:20:18;;;;;;;0.20;0.20;;;10.00;99.90;;;;;;5075368;23;20502;-91
2023/03/31 07:22:46;;;;;;;0.20;0.20;;;10.00;99.90;;;;;;5088500;28;20438;-92
2023/03/31 07:25:12;;;;;;;0.20;0.20;;;10.10;99.90;;;;;;5074828;28;20469;-91
2023/03/31 07:27:38;;;;;;;0.20;0.20;;;10.10;99.90;;;;;;5087994;28;20447;-88
2023/03/31 07:30:23;;;;;;;0.20;0.20;;;10.10;99.90;;;;;;5078063;28;20469;-89
2023/03/31 07:32:50;;;;;;;0.17;0.17;;;10.10;99.90;;;;;;5075231;28;20189;-91
2023/03/31 07:35:16;;;;;;;0.20;0.20;;;10.10;99.90;;;;;;5096792;28;20442;-91
2023/03/31 07:37:44;;;;;;;0.10;0.10;;;10.10;99.90;;;;;;5080983;28;20475;-93
2023/03/31 07:40:16;;;;;;;0.10;0.10;;;10.20;99.90;;;;;;5101456;28;20502;-93
2023/03/31 07:42:43;;;;;;;0.20;0.20;;;10.20;99.90;;;;;;5084370;28;20435;-91
2023/03/31 07:45:09;;;;;;;0.20;0.20;;;10.20;99.90;;;;;;5066429;28;20986;-93
2023/03/31 07:47:35;;;;;;;0.20;0.20;;;10.30;99.90;;;;;;5078157;28;20427;-93
2023/03/31 07:50:01;;;;;;;0.20;0.20;;;10.40;99.90;;;;;;5087170;28;20435;-94
2023/03/31 07:52:27;;;;;;;0.20;0.20;;;10.50;99.90;;;;;;5076763;28;20427;-93
2023/03/31 07:54:53;;;;;;;0.20;0.20;;;10.50;99.90;;;;;;5138135;22;20604;-93
2023/03/31 07:57:18;;;;;;;0.10;0.10;;;10.50;99.90;;;;;;5073743;28;20641;-92
2023/03/31 07:59:47;;;;;;;0.20;0.20;;;10.70;99.90;;;;;;5073318;28;20271;-93
2023/03/31 08:02:15;;;;;;;0.20;0.20;;;10.70;99.90;;;;;;5066073;28;20198;-93
2023/03/31 08:04:42;;;;;;;0.20;0.20;;;10.80;99.90;;;;;;5072604;28;20455;-94
2023/03/31 08:07:29;;;;;;;0.20;0.20;;;10.90;99.90;;;;;;5076745;28;20432;-96
2023/03/31 08:09:56;;;;;;;0.20;0.20;;;10.80;99.90;;;;;;5082778;28;20438;-95
2023/03/31 08:12:21;;;;;;;0.20;0.20;;;10.80;99.90;;;;;;5079556;28;20490;-93
2023/03/31 08:14:47;;;;;;;0.20;0.20;;;10.90;99.90;;;;;;5058075;28;20440;-91
2023/03/31 08:17:13;;;;;;;0.10;0.10;;;10.80;99.90;;;;;;5076733;28;20684;-94
2023/03/31 08:19:38;;;;;;;0.20;0.20;;;10.80;99.90;;;;;;5078772;28;20559;-95
2023/03/31 08:22:04;;;;;;;0.20;0.20;;;10.80;99.90;;;;;;5056909;28;20660;-96
2023/03/31 08:24:30;;;;;;;0.20;0.20;;;10.80;99.90;;;;;;5059615;28;20189;-94
2023/03/31 08:26:55;;;;;;;0.10;0.10;;;10.80;99.90;;;;;;5074471;28;20182;-94
2023/03/31 08:29:21;;;;;;;0.17;0.17;;;10.80;99.90;;;;;;5057747;28;20186;-95
2023/03/31 08:31:47;;;;;;;0.20;0.20;;;10.90;99.90;;;;;;5074502;28;20463;-92
2023/03/31 08:34:12;;;;;;;0.10;0.10;;;11.10;99.90;;;;;;5071195;28;20560;-94
2023/03/31 08:36:38;;;;;;;0.20;0.20;;;11.20;99.90;;;;;;5055712;28;20213;-94
2023/03/31 08:39:03;;;;;;;0.13;0.13;;;11.30;99.90;;;;;;5071907;28;20209;-93
2023/03/31 08:41:57;;;;;;;0.10;0.10;;;11.30;99.90;;;;;;5075264;28;20189;-93
2023/03/31 08:44:52;;;;;;;0.10;0.10;;;11.30;99.90;;;;;;5075437;28;20189;-94
2023/03/31 08:47:21;;;;;;;0.20;0.20;;;11.50;99.90;;;;;;5077884;22;20510;-93
2023/03/31 08:49:52;;;;;;;0.10;0.10;;;11.60;99.90;;;;;;5074948;28;20443;-93
2023/03/31 08:52:33;;;;;;;0.10;0.10;;;11.60;99.90;;;;;;5094334;28;20488;-93
2023/03/31 08:57:40;;;;;;;0.13;0.13;;;11.40;99.90;;;;;;5083082;22;20502;-94
2023/03/31 09:00:13;;;;;;;0.10;0.10;;;11.40;99.90;;;;;;5055609;28;20575;-94
2023/03/31 09:03:06;;;;;;;0.20;0.20;;;11.40;99.90;;;;;;5057443;28;20452;-94
2023/03/31 09:05:58;;;;;;;0.10;0.10;;;11.50;99.90;;;;;;5073808;28;20513;-94
2023/03/31 09:08:32;;;;;;;0.20;0.20;;;11.50;99.90;;;;;;5070219;28;20483;-94
2023/03/31 09:11:06;;;;;;;0.10;0.10;;;11.50;99.90;;;;;;5071353;28;20452;-96
2023/03/31 09:14:00;;;;;;;0.10;0.10;;;11.60;99.90;;;;;;5076754;28;20408;-93
2023/03/31 09:16:54;;;;;;;0.20;0.20;;;11.50;99.90;;;;;;5060091;28;20459;-95
2023/03/31 09:19:57;;;;;;;0.10;0.10;;;11.60;99.90;;;;;;5029694;28;20571;-94
2023/03/31 09:22:31;;;;;;;0.10;0.10;;;11.70;99.90;;;;;;5069799;28;20959;-93
2023/03/31 09:25:04;;;;;;;0.10;0.10;;;11.90;99.90;;;;;;5057041;28;20484;-93
2023/03/31 09:27:33;;;;;;;0.10;0.10;;;12.00;99.90;;;;;;5063857;28;20447;-93
2023/03/31 09:30:10;;;;;;;0.20;0.20;;;11.80;99.90;;;;;;5058264;28;20522;-93
2023/03/31 09:32:38;;;;;;;0.10;0.10;;;11.70;99.90;;;;;;5071607;28;20428;-92
2023/03/31 09:35:20;;;;;;;0.20;0.20;;;11.60;99.90;;;;;;5072342;28;20494;-92
2023/03/31 09:37:47;;;;;;;0.20;0.20;;;11.50;99.90;;;;;;5075552;28;20543;-91
2023/03/31 09:40:19;;;;;;;0.20;0.20;;;11.50;99.90;;;;;;5072012;28;20482;-94
2023/03/31 09:42:49;;;;;;;0.20;0.20;;;11.40;99.90;;;;;;5069999;28;20452;-92
2023/03/31 09:45:17;;;;;;;0.10;0.10;;;11.50;99.90;;;;;;5066456;28;20497;-92
2023/03/31 09:47:46;;;;;;;0.20;0.20;;;11.60;99.90;;;;;;5051599;28;20478;-94
2023/03/31 09:50:13;;;;;;;0.20;0.20;;;11.60;99.90;;;;;;5065423;28;20514;-94
2023/03/31 09:52:58;;;;;;;0.20;0.20;;;11.60;99.90;;;;;;5078146;28;20444;-94
2023/03/31 09:55:35;;;;;;;0.17;0.17;;;11.70;99.90;;;;;;5074924;28;21122;-94
2023/03/31 09:58:01;;;;;;;0.10;0.10;;;11.70;99.90;;;;;;5100573;22;20502;-96
2023/03/31 10:00:27;;;;;;;0.10;0.10;;;11.80;99.90;;;;;;5059640;28;20480;-94
2023/03/31 10:03:06;;;;;;;0.17;0.17;;;11.80;99.90;;;;;;5075916;28;20246;-94
2023/03/31 10:05:38;;;;;;;0.20;0.20;;;11.70;99.90;;;;;;5072947;28;20448;-95
2023/03/31 10:08:10;;;;;;;0.10;0.10;;;11.70;99.90;;;;;;5075012;28;20462;-93
2023/03/31 10:10:37;;;;;;;0.10;0.10;;;11.70;99.90;;;;;;5057357;28;20517;-92
2023/03/31 10:13:15;;;;;;;0.10;0.10;;;11.60;99.90;;;;;;5053023;28;20450;-94
2023/03/31 10:15:41;;;;;;;0.10;0.10;;;11.60;99.90;;;;;;5073556;28;20432;-94
2023/03/31 10:18:15;;;;;;;0.10;0.10;;;11.70;99.90;;;;;;5057549;28;20478;-91
2023/03/31 10:20:51;;;;;;;0.10;0.10;;;11.70;99.90;;;;;;5096083;22;20242;-92
2023/03/31 10:23:28;;;;;;;0.20;0.20;;;11.60;99.90;;;;;;5061074;28;20528;-84
2023/03/31 10:25:54;;;;;;;0.20;0.20;;;11.60;99.90;;;;;;5067459;28;20512;-85
2023/03/31 10:28:21;;;;;;;0.20;0.20;;;11.60;99.90;;;;;;5055315;28;20436;-85
2023/03/31 10:30:52;;;;;;;0.10;0.10;;;11.50;99.90;;;;;;5067497;28;20502;-85
2023/03/31 10:33:34;;;;;;;0.20;0.20;;;11.40;99.90;;;;;;5068922;28;20455;-86
2023/03/31 10:36:22;;;;;;;0.10;0.10;;;11.50;99.90;;;;;;5065875;28;20447;-85
2023/03/31 10:38:50;;;;;;;0.20;0.20;;;11.50;99.90;;;;;;5069582;28;20578;-84
2023/03/31 10:41:28;;;;;;;0.17;0.17;;;11.60;99.90;;;;;;5067763;28;20456;-85
2023/03/31 10:44:01;;;;;;;0.10;0.10;;;11.60;99.90;;;;;;5069035;28;20463;-84
2023/03/31 10:46:51;;;;;;;0.20;0.20;;;11.60;99.90;;;;;;5067854;28;20452;-84
2023/03/31 10:49:26;;;;;;;0.10;0.10;;;11.80;99.90;;;;;;5065807;28;20424;-84
2023/03/31 10:51:55;;;;;;;0.20;0.20;;;11.90;99.90;;;;;;5048551;28;20424;-86
2023/03/31 10:54:20;;;;;;;0.10;0.10;;;11.90;99.90;;;;;;5070415;28;20818;-86
2023/03/31 10:56:50;;;;;;;0.20;0.20;;;11.80;99.90;;;;;;5038615;28;20440;-85
2023/03/31 10:59:45;;;;;;;0.10;0.10;;;11.70;99.90;;;;;;5071539;28;20213;-86
2023/03/31 11:02:32;;;;;;;0.10;0.10;;;11.70;99.90;;;;;;5067148;28;20420;-85
2023/03/31 11:05:45;;;;;;;0.10;0.10;;;11.80;99.90;;;;;;5071233;28;20452;-85
2023/03/31 11:08:28;;;;;;;0.20;0.20;;;11.60;99.90;;;;;;5011343;28;20458;-85
2023/03/31 11:11:35;;;;;;;0.20;0.20;;;11.60;99.90;;;;;;5059053;28;20547;-86
2023/03/31 11:14:01;;;;;;;0.10;0.10;;;11.50;99.90;;;;;;5051359;28;20978;-84
2023/03/31 11:16:39;;;;;;;0.20;0.20;;;11.40;99.90;;;;;;5055531;28;20436;-85
2023/03/31 11:19:21;;;;;;;0.20;0.20;;;11.30;99.90;;;;;;5053423;28;20229;-85
2023/03/31 11:22:08;;;;;;;0.20;0.20;;;11.40;99.90;;;;;;5074499;28;20467;-85
2023/03/31 11:24:57;;;;;;;0.10;0.10;;;11.40;99.90;;;;;;5070308;23;20493;-83
2023/03/31 11:27:33;;;;;;;0.20;0.20;;;11.30;99.90;;;;;;5031648;28;20504;-85
2023/03/31 11:30:03;;;;;;;0.10;0.10;;;11.30;99.90;;;;;;5035521;28;20476;-84
2023/03/31 11:32:47;;;;;;;0.20;0.20;;;11.40;99.90;;;;;;5053066;23;20501;-86
2023/03/31 11:35:20;;;;;;;0.20;0.20;;;11.40;99.90;;;;;;5012153;28;20457;-87
2023/03/31 11:37:56;;;;;;;0.10;0.10;;;11.30;99.90;;;;;;5026011;28;20437;-85
2023/03/31 11:40:47;;;;;;;0.20;0.20;;;11.40;99.90;;;;;;5009064;28;20489;-87
2023/03/31 11:43:30;;;;;;;0.20;0.20;;;11.60;99.90;;;;;;5036478;28;20472;-83
2023/03/31 11:46:19;;;;;;;0.10;0.10;;;11.80;99.90;;;;;;5037016;28;20898;-85
2023/03/31 11:48:58;;;;;;;0.10;0.10;;;11.70;99.90;;;;;;5017673;28;20430;-85
2023/03/31 11:51:37;;;;;;;0.10;0.10;;;11.80;99.90;;;;;;5030383;28;20603;-85
2023/03/31 11:54:10;;;;;;;0.20;0.20;;;11.90;99.90;;;;;;5010065;28;22315;-84
2023/03/31 11:56:38;;;;;;;0.10;0.10;;;11.80;99.90;;;;;;5017328;28;20464;-84
2023/03/31 11:59:06;;;;;;;0.10;0.10;;;11.70;99.90;;;;;;5015760;28;20509;-86
2023/03/31 12:01:55;;;;;;;0.10;0.10;;;11.50;99.90;;;;;;5021627;28;20450;-85
2023/03/31 12:04:37;;;;;;;0.10;0.10;;;11.60;99.90;;;;;;5016139;28;20458;-85
2023/03/31 12:07:18;;;;;;;0.20;0.20;;;11.50;99.90;;;;;;4993009;28;20460;-84
2023/03/31 12:10:07;;;;;;;0.10;0.10;;;11.60;99.90;;;;;;5031491;28;20450;-85
2023/03/31 12:12:41;;;;;;;0.10;0.10;;;11.90;99.90;;;;;;5014409;28;20453;-85
2023/03/31 12:15:10;;;;;;;0.20;0.20;;;11.90;99.90;;;;;;5036907;28;20434;-85
2023/03/31 12:17:37;;;;;;;0.20;0.20;;;11.90;99.90;;;;;;5034962;28;20422;-85
2023/03/31 12:20:10;;;;;;;0.10;0.10;;;11.90;99.90;;;;;;5016240;28;20562;-86
2023/03/31 12:22:45;;;;;;;0.20;0.20;;;12.10;99.90;;;;;;5041416;28;20470;-85
2023/03/31 12:25:18;;;;;;;0.10;0.10;;;12.20;99.90;;;;;;5035266;28;20454;-84
2023/03/31 12:27:53;;;;;;;0.10;0.10;;;12.10;99.90;;;;;;5038738;28;20803;-84
2023/03/31 12:30:30;;;;;;;0.10;0.10;;;12.20;99.90;;;;;;5016750;28;20445;-85
2023/03/31 12:33:01;;;;;;;0.10;0.10;;;12.10;99.90;;;;;;5009592;28;20485;-84
2023/03/31 12:36:04;;;;;;;0.10;0.10;;;11.90;99.90;;;;;;5030156;28;20461;-84
2023/03/31 12:38:35;;;;;;;0.20;0.20;;;11.80;99.90;;;;;;5029659;28;20453;-84
2023/03/31 12:41:22;;;;;;;0.10;0.10;;;11.90;99.90;;;;;;5034296;28;20457;-84
2023/03/31 12:44:00;;;;;;;0.10;0.10;;;11.80;99.90;;;;;;5027417;28;20493;-87
2023/03/31 12:46:44;;;;;;;0.10;0.10;;;11.70;99.90;;;;;;5019361;28;20453;-85
2023/03/31 12:49:40;;;;;;;0.10;0.10;;;11.80;99.90;;;;;;5039789;23;20499;-87
2023/03/31 12:52:35;;;;;;;0.10;0.10;;;11.90;99.90;;;;;;5067746;28;20452;-85
2023/03/31 12:55:22;;;;;;;0.20;0.20;;;11.90;99.90;;;;;;5048088;28;20446;-87
2023/03/31 12:57:51;;;;;;;0.10;0.10;;;11.80;99.90;;;;;;5060087;22;20596;-85
2023/03/31 13:00:25;;;;;;;0.10;0.10;;;11.70;99.90;;;;;;5050690;28;20517;-85
2023/03/31 13:03:49;;;;;;;0.20;0.20;;;11.80;99.90;;;;;;5048293;28;20526;-85
2023/03/31 13:06:26;;;;;;;0.10;0.10;;;12.00;99.90;;;;;;5039616;28;20441;-86
2023/03/31 13:08:57;;;;;;;0.10;0.10;;;12.00;99.90;;;;;;5047900;28;20448;-86
2023/03/31 13:11:31;;;;;;;0.20;0.20;;;12.10;99.90;;;;;;5041534;28;20445;-85
2023/03/31 13:14:00;;;;;;;0.10;0.10;;;12.00;99.90;;;;;;5053272;28;20456;-86
2023/03/31 13:16:31;;;;;;;0.10;0.10;;;12.10;99.90;;;;;;5048375;28;20433;-87
2023/03/31 13:18:57;;;;;;;0.10;0.10;;;12.20;99.90;;;;;;5036142;28;20973;-87
2023/03/31 13:21:24;;;;;;;0.20;0.20;;;12.30;99.90;;;;;;5035472;28;20470;-87
2023/03/31 13:23:50;;;;;;;0.10;0.10;;;12.40;99.90;;;;;;5051405;28;20449;-86
2023/03/31 13:26:39;;;;;;;0.13;0.13;;;12.20;99.90;;;;;;5049667;28;20444;-87
2023/03/31 13:29:13;;;;;;;0.10;0.10;;;12.10;99.90;;;;;;5051956;28;20880;-87
2023/03/31 13:32:00;;;;;;;0.10;0.10;;;12.20;99.90;;;;;;5048876;28;20445;-86
2023/03/31 13:34:56;;;;;;;0.10;0.10;;;12.30;99.90;;;;;;5049627;28;20474;-88
2023/03/31 13:37:44;;;;;;;0.10;0.10;;;12.40;99.90;;;;;;5049069;28;20453;-85